Weather observations for the past three days for
Washington
Metric (Imperial)
Date Time (cdt) Wind (kph) Vis. (km) Weather Sky Cond. Temperature (ºC) Relative Humidity Wind Chill (°C) Heat Index (°C) Pressure Precipitation (cm)
Air Dwpt 6 hour altimeter (cm) sea level (mb) 1 hr 3 hr 6 hr
Max. Min.
10 07:55 NW 15 0.00 Fair CLR 10 -2 43% 8 76.5 0.0
10 07:35 NW 15 0.00 Fair CLR 9 -1 50% 7 76.48 0.0
10 07:15 NW 17 0.00 Fair CLR 8 -2 50% 6 76.43 0.0
10 06:55 NW 17 0.00 Fair CLR 7 -2 53% 4 76.4 0.0
10 06:35 NW 17 0.00 Fair CLR 6 -2 57% 3 76.38 0.0
10 06:15 NW 15 0.00 Fair CLR 6 -2 57% 3 76.38 0.0
10 05:55 NW 17 0.00 Fair CLR 6 -3 53% 3 76.35 0.0
10 05:35 NW 17 0.00 Fair CLR 6 -3 53% 3 76.33 0.0
10 05:15 NW 17 0.00 Fair CLR 6 -2 57% 3 76.3 0.0
10 04:55 NW 17 0.00 Fair CLR 6 -3 53% 3 76.3 0.0
10 04:35 NW 19 0.00 Fair CLR 6 -3 53% 3 76.28 0.0
10 04:15 N 17 0.00 Fair CLR 7 -3 49% 4 76.25 0.0
10 03:55 NW 19 0.00 Fair CLR 7 -3 49% 4 76.25 0.0
10 03:35 N 17 0.00 Fair CLR 7 -2 53% 4 76.23 0.0
10 03:15 NW 15 0.00 Fair CLR 6 -2 57% 3 76.2 0.0
10 02:55 NW 13 0.00 Fair CLR 6 -2 57% 4 76.2 0.0
10 02:35 NW 13 0.00 Fair CLR 7 -1 57% 5 76.2 0.0
10 02:15 NW 9 0.00 Fair CLR 8 -2 50% 7 76.2 0.0
10 01:55 NW 13 0.00 Fair CLR 6 -2 57% 4 76.17 0.0
10 01:35 NW 11 0.00 Fair CLR 8 -2 50% 6 76.15 0.0
10 01:15 NW 13 0.00 Fair CLR 8 -2 50% 6 76.12 0.0
10 00:55 NW 13 0.00 Fair CLR 9 -2 46% 7 76.1 0.0
10 00:35 NW 9 0.00 Fair CLR 10 -2 43% 9 76.1 0.0
10 00:15 NW 9 0.00 Fair CLR 10 -2 43% 9 76.05 0.0
09 23:55 N 13 0.00 Fair CLR 10 -2 43% 8 76.02 0.0
09 23:35 N 15 0.00 Fair CLR 12 -2 38% 76.02 0.0
09 23:15 NW 15 0.00 Fair CLR 12 -1 41% 76 0.0
09 22:55 N 19 0.00 Fair CLR 13 -2 36% 75.97 0.0
09 22:15 N 20 0.00 Fair CLR 15 -1 34% 75.92 0.0
09 21:55 N 22 0.00 Fair CLR 15 -1 34% 75.9 0.0
09 21:35 N 20 0.00 Fair CLR 15 -1 34% 75.84 0.0
09 21:15 NW 17 0.00 Fair CLR 16 0 34% 75.82 0.0
09 20:55 NW 24 0.00 Fair CLR 17 -1 30% 75.79 0.0
09 20:35 N 24 0.00 Fair CLR 18 0 30% 75.77 0.0
09 20:15 NW 19 0.00 Fair CLR 18 2 34% 75.74 0.0
09 19:55 NW 19 0.00 Fair CLR 18 5 43% 75.69 0.0
09 19:35 NW 15 0.00 Fair CLR 18 5 43% 75.67 0.0
09 19:15 W 9 0.00 A Few Clouds FEW100 FEW120 19 5 40% 75.67 0.0
09 18:55 NW 13 0.00 A Few Clouds FEW100 FEW120 19 5 40% 75.64 0.0
09 18:35 NW 19 0.00 Partly Cloudy SCT100 19 5 40% 75.64 0.0
09 18:15 NW 24 0.00 Mostly Cloudy BKN100 19 5 40% 75.64 0.0
09 17:55 NW 26 G 35 0.00 A Few Clouds FEW100 19 5 40% 75.62 0.0
09 17:35 NW 26 0.00 Fair CLR 19 5 40% 75.62 0.0
09 17:15 NW 26 0.00 Fair CLR 20 6 40% 75.62 0.0
09 16:55 NW 33 0.00 Fair and Breezy CLR 20 6 40% 75.59 0.0
09 16:35 NW 28 G 37 0.00 Fair CLR 21 6 38% 75.59 0.0
09 16:15 N 31 0.00 Fair CLR 22 6 36% 75.57 0.0
09 15:55 NW 31 G 46 0.00 Fair CLR 23 5 31% 75.54 0.0
09 15:35 NW 30 G 41 0.00 Fair CLR 24 5 29% 25 75.54 0.0
09 15:15 NW 30 G 46 0.00 Fair CLR 25 3 24% 25 75.54 0.0
09 14:55 NW 33 G 48 0.00 Fair and Breezy CLR 24 1 22% 25 75.54 0.0
09 14:35 NW 35 G 46 0.00 Fair and Breezy CLR 25 1 21% 25 75.54 0.0
09 14:15 NW 31 0.00 Fair CLR 24 1 22% 25 75.51 0.0
09 13:55 NW 26 G 41 0.00 Fair CLR 24 1 22% 25 75.51 0.0
09 13:35 NW 24 G 37 0.00 Fair CLR 25 1 21% 25 75.51 0.0
09 13:15 NW 33 G 43 0.00 Fair and Breezy CLR 24 0 21% 25 75.49 0.0
09 12:55 NW 28 G 43 0.00 Fair CLR 25 1 21% 25 75.49 0.0
09 12:35 NW 26 G 41 0.00 Fair CLR 24 1 22% 25 75.51 0.0
09 12:15 NW 31 0.00 Fair CLR 24 2 24% 25 75.49 0.0
09 11:55 NW 37 0.00 Fair and Breezy CLR 24 1 22% 25 75.49 0.0
09 11:35 NW 35 G 48 0.00 Fair and Breezy CLR 24 2 24% 25 75.49 0.0
09 11:15 NW 28 G 43 0.00 Fair CLR 24 3 25% 25 75.49 0.0
09 10:55 W 28 G 39 0.00 Fair CLR 23 3 27% 75.49 0.0
09 10:35 W 26 0.00 Fair CLR 22 3 29% 75.46 0.0
09 10:15 W 17 0.00 Fair CLR 21 5 35% 75.46 0.0
09 09:55 SW 15 0.00 Fair CLR 19 6 43% 75.44 0.0
09 09:35 W 13 0.00 Fair CLR 18 9 56% 75.44 0.0
09 09:15 W 13 0.00 Fair CLR 17 10 64% 75.44 0.0
09 08:55 Vrbl 9 G 19 0.00 Fair CLR 16 11 72% 75.46 0.0
09 08:35 W 15 0.00 NULL NULL 15 14 94% 75.44 0.0
09 08:15 W 15 0.00 NULL NULL 14 14 100% 75.44 0.0
09 07:55 W 17 0.00 NULL NULL 13 13 100% 75.44 0.0
09 07:35 W 15 0.00 NULL NULL 12 12 100% 75.41 0.0
09 07:15 W 11 0.00 NULL NULL 11 11 100% 75.41 0.0
09 06:55 SW 11 0.00 NULL NULL 11 11 100% 75.39 0.0
09 06:35 SW 9 0.00 NULL NULL 10 10 100% 9 75.39 0.0
09 06:15 W 9 0.00 NULL NULL 10 10 100% 9 75.36 0.0
09 05:55 SW 11 0.00 NULL NULL 10 10 100% 9 75.34 0.0
09 05:35 W 15 0.00 NULL NULL 10 10 100% 8 75.34 0.0
09 05:15 W 15 0.00 NULL NULL 10 10 100% 8 75.34 0.0
09 04:55 SW 17 0.00 NULL NULL 10 10 100% 8 75.34 0.0
09 04:35 SW 15 0.00 NULL NULL 10 10 100% 8 75.34 0.0
09 04:15 SW 15 0.00 NULL NULL 10 10 100% 8 75.34 0.0
09 03:55 SW 13 0.00 NULL NULL 10 10 100% 8 75.36 0.0
09 03:35 SW 13 0.00 NULL NULL 11 11 100% 75.34 0.0
09 02:55 SW 13 0.00 NULL NULL 11 11 100% 75.34 0.0
09 02:35 SW 13 0.00 NULL NULL 11 11 100% 75.36 0.0
09 02:15 SW 13 0.00 NULL NULL 11 11 100% 75.36 0.0
09 01:55 SW 13 0.00 NULL NULL 11 11 100% 75.39 0.0
09 01:35 SW 17 0.00 NULL NULL 12 12 100% 75.36 0.0
09 01:15 SW 17 0.00 NULL NULL 12 12 100% 75.39 0.0
09 00:55 SW 17 0.00 NULL NULL 12 12 100% 75.39 0.0
09 00:35 SW 20 0.00 NULL NULL 12 12 100% 75.39 0.0
09 00:15 SW 19 0.00 NULL NULL 13 13 100% 75.39 0.0
08 23:55 SW 22 0.00 NULL NULL 13 13 100% 75.41 0.0
08 23:35 SW 22 0.00 NULL NULL 13 13 100% 75.41 0.0
08 23:15 SW 19 0.00 NULL NULL 13 13 100% 75.44 0.0
08 22:55 SW 19 0.00 NULL NULL 14 13 94% 75.44 0.0
08 22:35 SW 19 G 30 0.00 Fair CLR 14 12 88% 75.46 0.0
08 22:15 SW 22 0.00 Fair CLR 14 12 88% 75.46 0.0
08 21:55 SW 26 0.00 Fair CLR 15 12 82% 75.44 0.0
08 21:35 SW 24 0.00 Fair CLR 15 12 82% 75.41 0.0
08 21:15 SW 22 G 33 0.00 Fair CLR 15 11 77% 75.41 0.0
08 20:55 SW 22 0.00 Fair CLR 16 11 72% 75.39 0.0
08 20:35 S 24 0.00 Fair CLR 16 10 68% 75.36 0.0
08 20:15 S 20 G 30 0.00 Fair CLR 17 10 64% 75.36 0.0
08 19:35 SW 24 0.00 Fair CLR 20 7 43% 75.36 0.0
08 19:15 S 22 0.00 Fair CLR 21 6 38% 75.39 0.0
08 18:55 SW 17 0.00 Fair CLR 22 4 31% 75.39 0.0
08 18:35 SW 19 0.00 Fair CLR 21 4 33% 75.41 0.0
08 18:15 SW 20 0.00 Fair CLR 22 4 31% 75.41 0.0
08 17:55 SW 17 G 28 0.00 Fair CLR 22 4 31% 75.41 0.0
08 17:15 W 22 G 33 0.00 Fair CLR 22 4 31% 75.41 0.0
08 16:55 SW 20 G 31 0.00 Fair CLR 22 4 31% 75.44 0.0
08 16:35 SW 28 0.00 A Few Clouds FEW070 22 5 33% 75.44 0.0
08 16:15 SW 19 0.00 Fair CLR 21 5 35% 75.46 0.0
08 15:55 SW 19 G 31 0.00 A Few Clouds FEW080 22 5 33% 75.46 0.0
08 15:35 SW 22 G 33 0.00 A Few Clouds FEW080 22 6 36% 75.49 0.0
08 15:15 SW 17 0.00 Fair CLR 22 2 27% 75.51 0.0
08 14:55 Vrbl 11 G 30 0.00 Fair CLR 22 3 29% 75.51 0.0
08 14:35 SW 17 G 30 0.00 Fair CLR 22 3 29% 75.54 0.0
08 14:15 SW 17 G 26 0.00 Fair CLR 21 3 31% 75.54 0.0
08 13:55 S 15 0.00 Fair CLR 21 5 35% 75.57 0.0
08 13:35 S 20 0.00 Fair CLR 20 7 43% 75.57 0.0
08 13:15 SW 11 G 22 0.00 Fair CLR 20 8 46% 75.59 0.0
08 12:55 Vrbl 11 G 22 0.00 Fair CLR 20 9 49% 75.62 0.0
08 12:35 S 17 G 28 0.00 Fair CLR 19 9 52% 75.64 0.0
08 12:15 S 19 0.00 Fair CLR 19 10 56% 75.64 0.0
08 11:55 SW 15 0.00 Fair CLR 19 8 49% 75.67 0.0
08 11:35 S 15 0.00 Fair CLR 19 10 56% 75.69 0.0
08 11:15 SW 13 0.00 Fair CLR 19 9 52% 75.72 0.0
08 10:55 Calm 0.00 Fair CLR 18 9 56% 75.72 0.0
08 10:35 S 9 0.00 Fair CLR 18 10 60% 75.69 0.0
08 10:15 S 11 0.00 Fair CLR 17 10 64% 75.69 0.0
08 09:55 SE 7 0.00 Fair CLR 17 9 60% 75.69 0.0
08 09:35 Vrbl 9 0.00 Fair CLR 16 10 68% 75.69 0.0
08 09:15 E 7 0.00 Fair CLR 15 10 72% 75.69 0.0
08 08:55 E 6 0.00 Fair CLR 14 11 82% 75.69 0.0
08 08:15 Calm 0.00 NULL NULL 11 11 100% 75.72 0.0
08 07:35 Calm 0.00 NULL NULL 10 10 100% 75.72 0.0
08 07:15 Calm 0.00 NULL NULL 9 9 100% 75.72 0.0
08 06:55 Calm 0.00 NULL NULL 8 8 100% 75.72 0.0
08 06:35 NE 6 0.00 NULL NULL 6 6 100% 75.72 0.0
08 06:15 NE 6 0.00 NULL NULL 5 5 100% 75.69 0.0
08 05:55 NE 7 0.00 NULL NULL 6 6 100% 5 75.69 0.0
08 05:35 N 6 0.00 NULL NULL 7 7 100% 75.72 0.0
08 05:15 Calm 0.00 NULL NULL 7 7 100% 75.72 0.0
08 04:55 NE 7 0.00 NULL NULL 8 8 100% 7 75.69 0.0
08 04:30 NE 9 0.00 NULL NULL 8 8 100% 7 75.67 0.0
08 04:15 NE 9 0.00 NULL NULL 8 8 100% 7 75.67 0.0
08 03:55 Calm 0.00 NULL NULL 8 8 100% 75.67 0.0
08 03:35 NE 9 0.00 NULL NULL 9 9 100% 8 75.67 0.0
08 03:15 NE 6 0.00 NULL NULL 8 8 100% 75.67 0.0
08 02:35 E 11 0.00 NULL NULL 8 8 100% 6 75.69 0.0
08 02:15 NE 13 0.00 NULL NULL 9 9 100% 7 75.72 0.0
08 01:55 E 7 0.00 Mostly Cloudy BKN070 BKN085 10 7 82% 9 75.72 0.0
08 01:35 E 7 0.00 Overcast BKN070 OVC080 10 6 76% 9 75.74 0.0
08 01:15 Calm 0.00 Mostly Cloudy BKN065 BKN080 10 6 76% 75.74 0.0
08 00:55 Calm 0.00 Mostly Cloudy SCT065 BKN110 10 6 76% 75.77 0.0
08 00:35 SE 7 0.00 Mostly Cloudy BKN065 BKN075 BKN110 11 6 72% 75.77 0.0
08 00:15 SE 7 0.00 Mostly Cloudy BKN065 BKN080 BKN110 11 6 72% 75.77 0.0
07 23:55 SE 7 0.00 Overcast FEW070 BKN080 OVC095 11 6 72% 75.77 0.0
07 23:35 E 7 0.00 Overcast SCT070 BKN075 OVC090 11 6 72% 75.79 0.0
07 23:15 E 6 0.00 Overcast BKN070 OVC090 12 6 67% 75.79 0.0
07 22:55 SE 7 0.00 Overcast BKN070 OVC090 12 6 67% 75.79 0.0
07 22:35 SE 9 0.00 Overcast BKN075 OVC090 12 6 67% 75.77 0.0
07 21:55 SE 9 0.00 Overcast SCT075 OVC090 12 6 67% 75.77 0.0
07 21:35 SE 7 0.00 Overcast BKN085 OVC120 11 5 67% 75.77 0.0
07 21:15 SE 13 0.00 Mostly Cloudy BKN110 10 5 71% 8 75.74 0.0
07 20:55 E 11 0.00 Overcast OVC110 12 6 67% 75.72 0.0
07 20:35 E 11 0.00 Mostly Cloudy BKN110 12 6 67% 75.72 0.0
07 20:15 E 11 0.00 Partly Cloudy SCT100 SCT120 13 6 63% 75.69 0.0
07 19:55 E 11 0.00 A Few Clouds FEW100 14 6 59% 75.69 0.0
07 19:35 E 11 0.00 Partly Cloudy FEW075 SCT100 15 7 59% 75.69 0.0
07 19:15 NE 7 0.00 Partly Cloudy FEW075 SCT090 SCT110 17 6 49% 75.69 0.0
07 18:55 N 6 0.00 Partly Cloudy FEW085 SCT100 17 5 45% 75.69 0.0
07 18:35 NW 7 0.00 A Few Clouds FEW080 18 5 43% 75.69 0.0
07 18:15 Vrbl 7 G 20 0.00 Partly Cloudy FEW080 SCT095 19 4 37% 75.72 0.0
07 17:55 W 11 0.00 Fair CLR 18 3 37% 75.72 0.0
07 17:35 W 13 0.00 A Few Clouds FEW070 FEW080 18 3 37% 75.72 0.0
07 17:15 SW 28 0.00 Partly Cloudy SCT070 SCT080 18 3 37% 75.72 0.0
07 16:55 W 19 G 33 0.00 A Few Clouds FEW070 FEW085 19 3 35% 75.72 0.0
07 16:35 W 17 0.00 A Few Clouds FEW070 FEW085 20 4 35% 75.72 0.0
07 16:15 W 17 G 31 0.00 A Few Clouds FEW065 19 3 35% 75.74 0.0
07 15:55 W 11 G 22 0.00 Partly Cloudy SCT060 SCT070 SCT085 19 4 37% 75.74 0.0
07 15:35 SW 15 G 28 0.00 Partly Cloudy SCT060 SCT085 19 4 37% 75.77 0.0
07 15:15 W 19 G 31 0.00 A Few Clouds FEW060 18 3 37% 75.79 0.0
07 14:35 NW 28 G 39 0.00 Fair CLR 18 3 37% 75.84 0.0
07 14:15 W 20 G 31 0.00 Fair CLR 18 4 40% 75.87 0.0
07 13:55 W 24 G 37 0.00 Fair CLR 17 3 39% 75.87 0.0
07 13:35 W 22 G 37 0.00 Fair CLR 16 3 42% 75.9 0.0
07 13:15 W 13 G 26 0.00 Fair CLR 15 3 45% 75.92 0.0
07 12:55 W 19 0.00 Fair CLR 15 4 48% 75.95 0.0
07 12:15 W 15 G 26 0.00 Fair CLR 13 4 55% 76 0.0
07 11:55 W 15 G 24 0.00 Fair CLR 13 5 59% 76.02 0.0 0.03
07 11:35 W 11 0.00 Fair CLR 12 5 63% 76.02 0.0
07 10:55 W 15 0.00 Fair CLR 12 3 54% 76.05 0.0
07 10:35 W 13 G 22 0.00 A Few Clouds FEW050 FEW060 12 3 54% 76.02 0.0
07 10:15 W 15 0.00 Partly Cloudy SCT050 SCT060 12 2 51% 76.05 0.0
07 09:55 W 7 0.00 Fair CLR 12 2 51% 76.02 0.0
07 09:35 Calm 0.00 Fair CLR 11 1 50% 76.02 0.0
07 09:15 Vrbl 7 0.00 Fair CLR 10 1 54% 9 76.05 0.0
07 08:55 NW 19 0.00 Mostly Cloudy SCT055 SCT070 BKN080 10 1 54% 8 76.07 0.0
07 08:35 W 15 G 33 0.00 Partly Cloudy SCT080 10 0 50% 8 76.02 0.0
Date Time (cdt) Wind (kph) Vis. (km) Weather Sky Cond. Air Dwpt Max. Min. Relative Humidity Wind Chill (°C) Heat Index (°C) altimeter (cm) sea level (mb) 1 hr 3 hr 6 hr
6 hour
Temperature (ºC) Pressure Precipitation (cm)